createdAt,value
2022-09-16T00:00:16.308Z,5.10
2022-09-16T00:01:12.020Z,5.20
2022-09-16T00:02:07.175Z,5.80
2022-09-16T00:03:02.323Z,5.10
2022-09-16T00:03:58.592Z,5.20
2022-09-16T00:04:53.776Z,5.10
2022-09-16T00:05:49.673Z,5.30
2022-09-16T00:06:44.886Z,5.40
2022-09-16T00:07:40.165Z,5.40
2022-09-16T00:08:35.875Z,5.30
2022-09-16T00:09:31.065Z,4.60
2022-09-16T00:10:26.908Z,5.60
2022-09-16T00:11:22.184Z,5.90
2022-09-16T00:12:17.413Z,5.70
2022-09-16T00:13:13.134Z,5.50
2022-09-16T00:14:08.315Z,5.80
2022-09-16T00:15:03.441Z,5.60
2022-09-16T00:15:59.849Z,5.70
2022-09-16T00:16:55.135Z,5.70
2022-09-16T00:17:51.002Z,5.60
2022-09-16T00:18:46.181Z,5.20
2022-09-16T00:19:41.450Z,5.80
2022-09-16T00:20:36.612Z,4.80
2022-09-16T00:21:32.867Z,5.00
2022-09-16T00:22:28.163Z,4.70
2022-09-16T00:23:23.201Z,4.90
2022-09-16T00:24:19.098Z,4.90
2022-09-16T00:25:14.273Z,5.00
2022-09-16T00:26:09.481Z,5.10
2022-09-16T00:27:05.860Z,5.10
2022-09-16T00:28:01.207Z,5.50
2022-09-16T00:28:56.919Z,5.70
2022-09-16T00:29:52.218Z,5.90
2022-09-16T00:30:47.389Z,5.40
2022-09-16T00:31:43.284Z,5.70
2022-09-16T00:32:38.534Z,5.70
2022-09-16T00:33:34.250Z,6.00
2022-09-16T00:34:29.375Z,6.00
2022-09-16T00:35:24.757Z,6.00
2022-09-16T00:36:20.388Z,6.30
2022-09-16T00:37:15.540Z,6.50
2022-09-16T00:38:10.855Z,5.90
2022-09-16T00:39:05.983Z,5.90
2022-09-16T00:40:01.216Z,6.00
2022-09-16T00:40:56.319Z,5.60
2022-09-16T00:41:51.702Z,6.10
2022-09-16T00:42:47.435Z,5.60
2022-09-16T00:43:42.617Z,6.10
2022-09-16T00:44:37.803Z,6.30
2022-09-16T00:45:33.532Z,6.20
2022-09-16T00:46:28.950Z,6.30
2022-09-16T00:47:24.051Z,6.10
2022-09-16T00:48:19.224Z,6.40
2022-09-16T00:49:14.240Z,6.00
2022-09-16T00:50:09.242Z,5.70
2022-09-16T00:51:04.280Z,5.80
2022-09-16T00:51:59.311Z,5.80
2022-09-16T00:52:54.500Z,5.70
2022-09-16T00:53:49.749Z,5.60
2022-09-16T00:54:44.858Z,5.80
2022-09-16T00:55:39.872Z,4.90
2022-09-16T00:56:34.892Z,5.20
2022-09-16T00:57:29.936Z,5.70
2022-09-16T00:58:24.976Z,4.80
2022-09-16T00:59:20.148Z,4.70
2022-09-16T01:00:15.177Z,5.90
2022-09-16T01:01:13.598Z,5.20
2022-09-16T01:02:08.683Z,5.40
2022-09-16T01:03:03.695Z,5.90
2022-09-16T01:03:58.737Z,5.70
2022-09-16T01:04:53.767Z,6.60
2022-09-16T01:05:48.944Z,6.10
2022-09-16T01:06:44.107Z,6.50
2022-09-16T01:07:39.104Z,6.20
2022-09-16T01:08:34.182Z,5.60
2022-09-16T01:09:29.185Z,6.60
2022-09-16T01:10:24.263Z,6.80
2022-09-16T01:11:19.309Z,6.70
2022-09-16T01:12:14.362Z,7.50
2022-09-16T01:13:09.450Z,6.80
2022-09-16T01:14:04.549Z,7.00
2022-09-16T01:14:59.634Z,7.20
2022-09-16T01:15:54.696Z,6.50
2022-09-16T01:16:49.680Z,6.40
2022-09-16T01:17:47.140Z,6.70
2022-09-16T01:18:42.161Z,8.50
2022-09-16T01:19:37.422Z,7.40
2022-09-16T01:20:32.334Z,7.60
2022-09-16T01:21:27.561Z,7.90
2022-09-16T01:22:22.750Z,8.30
2022-09-16T01:23:17.831Z,8.90
2022-09-16T01:24:12.889Z,8.70
2022-09-16T01:25:08.038Z,8.90
2022-09-16T01:26:03.175Z,8.40
2022-09-16T01:27:00.685Z,9.20
2022-09-16T01:27:55.655Z,9.50
2022-09-16T01:28:50.892Z,9.60
2022-09-16T01:29:45.988Z,9.90
2022-09-16T01:30:41.147Z,9.70
2022-09-16T01:31:36.298Z,8.40
2022-09-16T01:32:31.263Z,9.00
2022-09-16T01:33:26.326Z,10.70
2022-09-16T01:34:21.413Z,9.60
2022-09-16T01:35:16.644Z,9.70
2022-09-16T01:36:11.634Z,9.70
2022-09-16T01:37:06.609Z,9.90
2022-09-16T01:38:01.712Z,10.20
2022-09-16T01:38:56.796Z,9.50
2022-09-16T01:39:52.079Z,9.70
2022-09-16T01:40:47.877Z,9.50
2022-09-16T01:41:43.104Z,10.10
2022-09-16T01:42:39.022Z,9.50
2022-09-16T01:43:34.121Z,9.50
2022-09-16T01:44:29.351Z,10.10
2022-09-16T01:45:25.290Z,9.50
2022-09-16T01:46:20.410Z,9.60
2022-09-16T01:47:15.741Z,10.30
2022-09-16T01:48:11.954Z,9.60
2022-09-16T01:49:07.181Z,10.30
2022-09-16T01:50:02.993Z,9.10
2022-09-16T01:50:58.191Z,9.80
2022-09-16T01:51:53.673Z,9.90
2022-09-16T01:52:49.327Z,9.30
2022-09-16T01:53:44.605Z,8.60
2022-09-16T01:54:40.427Z,9.00
2022-09-16T01:55:35.619Z,9.70
2022-09-16T01:56:30.983Z,9.00
2022-09-16T01:57:26.645Z,9.00
2022-09-16T01:58:21.859Z,8.90
2022-09-16T01:59:17.107Z,9.80
2022-09-16T02:00:13.557Z,8.60
2022-09-16T02:01:08.805Z,9.60
2022-09-16T02:02:04.689Z,9.00
2022-09-16T02:02:59.976Z,9.90
2022-09-16T02:03:55.224Z,9.30
2022-09-16T02:04:51.178Z,8.80
2022-09-16T02:05:46.276Z,9.40
2022-09-16T02:06:42.034Z,9.60
2022-09-16T02:07:37.235Z,9.70
2022-09-16T02:08:32.618Z,8.80
2022-09-16T02:09:28.402Z,9.40
2022-09-16T02:10:23.663Z,9.90
2022-09-16T02:11:18.865Z,9.50
2022-09-16T02:12:15.341Z,9.70
2022-09-16T02:13:10.573Z,10.10
2022-09-16T02:14:06.368Z,9.40
2022-09-16T02:15:01.584Z,9.40
2022-09-16T02:15:56.987Z,8.90
2022-09-16T02:16:52.623Z,9.10
2022-09-16T02:17:47.982Z,8.80
2022-09-16T02:18:43.887Z,8.20
2022-09-16T02:19:38.998Z,8.70
2022-09-16T02:20:34.238Z,8.90
2022-09-16T02:21:30.037Z,8.40
2022-09-16T02:22:25.257Z,8.90
2022-09-16T02:23:20.577Z,8.70
2022-09-16T02:24:16.777Z,8.70
2022-09-16T02:25:12.151Z,8.80
2022-09-16T02:26:07.957Z,9.30
2022-09-16T02:27:03.146Z,8.10
2022-09-16T02:27:58.487Z,8.00
2022-09-16T02:28:53.743Z,8.50
2022-09-16T02:29:49.196Z,9.10
2022-09-16T02:30:45.423Z,8.70
2022-09-16T02:31:40.686Z,8.20
2022-09-16T02:32:36.445Z,9.30
2022-09-16T02:33:31.634Z,9.00
2022-09-16T02:34:27.122Z,9.30
2022-09-16T02:35:22.807Z,9.00
2022-09-16T02:36:18.042Z,8.70
2022-09-16T02:37:13.829Z,9.20
2022-09-16T02:38:09.036Z,9.40
2022-09-16T02:39:04.390Z,9.60
2022-09-16T02:40:00.196Z,9.00
2022-09-16T02:40:55.310Z,8.50
2022-09-16T02:41:50.534Z,9.10
2022-09-16T02:42:46.851Z,9.10
2022-09-16T02:43:42.088Z,9.10
2022-09-16T02:44:37.285Z,8.90
2022-09-16T02:45:32.541Z,8.30
2022-09-16T02:46:30.252Z,8.30
2022-09-16T02:47:25.427Z,8.40
2022-09-16T02:48:20.493Z,8.70
2022-09-16T02:49:15.587Z,8.40
2022-09-16T02:50:10.857Z,9.30
2022-09-16T02:51:05.699Z,8.90
2022-09-16T02:52:00.765Z,8.00
2022-09-16T02:52:55.847Z,8.40
2022-09-16T02:53:50.953Z,7.80
2022-09-16T02:54:45.995Z,7.80
2022-09-16T02:55:41.087Z,7.90
2022-09-16T02:56:36.038Z,9.10
2022-09-16T02:57:31.094Z,8.30
2022-09-16T02:58:26.200Z,8.20
2022-09-16T02:59:21.272Z,8.30
2022-09-16T03:00:16.373Z,8.80
2022-09-16T03:01:11.663Z,9.00
2022-09-16T03:02:06.538Z,9.20
2022-09-16T03:03:01.572Z,9.70
2022-09-16T03:03:56.555Z,8.90
2022-09-16T03:04:51.609Z,9.50
2022-09-16T03:05:47.862Z,8.80
2022-09-16T03:06:43.072Z,9.50
2022-09-16T03:07:38.393Z,9.60
2022-09-16T03:08:33.643Z,9.80
2022-09-16T03:09:28.710Z,9.50
2022-09-16T03:10:23.770Z,9.80
2022-09-16T03:11:19.005Z,8.30
2022-09-16T03:12:13.938Z,9.60
2022-09-16T03:13:09.195Z,9.60
2022-09-16T03:14:04.269Z,9.30
2022-09-16T03:14:59.343Z,8.80
2022-09-16T03:15:54.498Z,9.20
2022-09-16T03:16:49.688Z,9.60
2022-09-16T03:17:44.616Z,9.30
2022-09-16T03:18:39.717Z,10.20
2022-09-16T03:19:34.839Z,9.90
2022-09-16T03:20:29.910Z,10.00
2022-09-16T03:21:24.966Z,10.20
2022-09-16T03:22:20.037Z,10.20
2022-09-16T03:23:15.179Z,9.60
2022-09-16T03:24:10.584Z,9.80
2022-09-16T03:25:05.408Z,10.90
2022-09-16T03:26:00.504Z,9.70
2022-09-16T03:26:55.594Z,9.80
2022-09-16T03:27:50.696Z,9.40
2022-09-16T03:28:45.772Z,9.40
2022-09-16T03:29:45.694Z,9.10
2022-09-16T03:30:36.915Z,8.80
2022-09-16T03:31:30.996Z,9.40
2022-09-16T03:32:26.071Z,10.10
2022-09-16T03:33:21.059Z,10.10
2022-09-16T03:34:16.182Z,10.90
2022-09-16T03:35:11.301Z,10.30
2022-09-16T03:36:06.280Z,9.80
2022-09-16T03:37:01.283Z,10.50
2022-09-16T03:37:56.378Z,9.90
2022-09-16T03:38:52.021Z,10.70
2022-09-16T03:39:47.315Z,10.20
2022-09-16T03:40:42.545Z,10.10
2022-09-16T03:41:38.342Z,11.20
2022-09-16T03:42:33.697Z,9.90
2022-09-16T03:43:29.608Z,9.80
2022-09-16T03:44:24.688Z,9.60
2022-09-16T03:45:20.209Z,10.30
2022-09-16T03:46:16.096Z,10.50
2022-09-16T03:47:11.318Z,9.30
2022-09-16T03:48:06.686Z,8.70
2022-09-16T03:49:03.008Z,8.90
2022-09-16T03:49:58.239Z,8.90
2022-09-16T03:50:54.066Z,8.70
2022-09-16T03:51:49.263Z,9.00
2022-09-16T03:52:44.754Z,8.70
2022-09-16T03:53:40.417Z,9.10
2022-09-16T03:54:35.762Z,9.00
2022-09-16T03:55:31.633Z,8.90
2022-09-16T03:56:26.835Z,9.10
2022-09-16T03:57:22.203Z,9.50
2022-09-16T03:58:17.889Z,9.30
2022-09-16T03:59:13.138Z,9.80
2022-09-16T04:00:08.623Z,9.00
2022-09-16T04:01:04.682Z,9.80
2022-09-16T04:01:59.978Z,10.50
2022-09-16T04:02:55.784Z,9.70
2022-09-16T04:03:51.011Z,10.10
2022-09-16T04:04:46.268Z,10.20
2022-09-16T04:05:42.071Z,10.40
2022-09-16T04:06:37.308Z,9.60
2022-09-16T04:07:33.093Z,9.40
2022-09-16T04:08:28.310Z,9.30
2022-09-16T04:09:23.727Z,9.10
2022-09-16T04:10:19.507Z,9.40
2022-09-16T04:11:14.753Z,8.70
2022-09-16T04:12:09.948Z,8.70
2022-09-16T04:13:06.412Z,8.30
2022-09-16T04:14:01.640Z,9.10
2022-09-16T04:14:57.426Z,8.60
2022-09-16T04:15:52.734Z,8.90
2022-09-16T04:16:47.958Z,8.70
2022-09-16T04:17:43.765Z,8.90
2022-09-16T04:18:39.110Z,9.10
2022-09-16T04:19:35.032Z,9.30
2022-09-16T04:20:30.137Z,8.50
2022-09-16T04:21:25.346Z,8.50
2022-09-16T04:22:21.153Z,8.50
2022-09-16T04:23:16.402Z,8.50
2022-09-16T04:24:13.333Z,8.90
2022-09-16T04:25:07.893Z,8.90
2022-09-16T04:26:03.098Z,8.00
2022-09-16T04:26:58.313Z,8.10
2022-09-16T04:27:53.643Z,9.10
2022-09-16T04:28:49.714Z,8.80
2022-09-16T04:29:44.972Z,10.10
2022-09-16T04:30:40.202Z,9.70
2022-09-16T04:31:36.561Z,9.00
2022-09-16T04:32:31.792Z,9.00
2022-09-16T04:33:27.554Z,9.70
2022-09-16T04:34:22.803Z,8.80
2022-09-16T04:35:18.033Z,9.30
2022-09-16T04:36:13.838Z,9.00
2022-09-16T04:37:09.084Z,9.10
2022-09-16T04:38:04.977Z,9.10
2022-09-16T04:39:00.114Z,9.70
2022-09-16T04:39:55.388Z,8.90
2022-09-16T04:40:51.194Z,9.40
2022-09-16T04:41:46.441Z,8.90
2022-09-16T04:42:41.847Z,9.20
2022-09-16T04:43:36.986Z,10.00
2022-09-16T04:44:32.286Z,9.10
2022-09-16T04:45:27.321Z,8.40
2022-09-16T04:46:22.371Z,9.30
2022-09-16T04:47:17.398Z,8.60
2022-09-16T04:48:12.447Z,8.40
2022-09-16T04:49:07.565Z,8.40
2022-09-16T04:50:02.628Z,8.00
2022-09-16T04:50:59.266Z,8.30
2022-09-16T04:51:54.291Z,9.20
2022-09-16T04:52:49.363Z,8.60
2022-09-16T04:53:44.433Z,9.10
2022-09-16T04:54:39.445Z,9.10
2022-09-16T04:55:34.653Z,9.00
2022-09-16T04:56:29.514Z,8.60
2022-09-16T04:57:24.555Z,8.80
2022-09-16T04:58:19.572Z,9.80
2022-09-16T04:59:14.592Z,8.50
2022-09-16T05:00:09.623Z,8.20
2022-09-16T05:01:04.664Z,8.30
2022-09-16T05:01:59.781Z,7.70
2022-09-16T05:02:54.726Z,7.70
2022-09-16T05:03:49.750Z,8.50
2022-09-16T05:04:44.905Z,8.10
2022-09-16T05:05:39.948Z,8.30
2022-09-16T05:06:34.990Z,7.60
2022-09-16T05:07:30.004Z,7.50
2022-09-16T05:08:25.048Z,8.40
2022-09-16T05:09:20.138Z,8.20
2022-09-16T05:10:15.207Z,7.70
2022-09-16T05:11:10.157Z,8.30
2022-09-16T05:12:05.274Z,9.70
2022-09-16T05:13:00.376Z,8.80
2022-09-16T05:13:55.626Z,8.20
2022-09-16T05:14:50.564Z,8.00
2022-09-16T05:15:50.393Z,8.70
2022-09-16T05:16:41.726Z,8.40
2022-09-16T05:17:50.863Z,8.70
2022-09-16T05:18:33.743Z,8.30
2022-09-16T05:19:27.767Z,7.80
2022-09-16T05:20:22.833Z,8.30
2022-09-16T05:21:18.888Z,7.80
2022-09-16T05:22:14.131Z,9.50
2022-09-16T05:23:09.253Z,9.00
2022-09-16T05:24:04.241Z,9.50
2022-09-16T05:24:59.474Z,9.40
2022-09-16T05:25:54.585Z,10.10
2022-09-16T05:26:49.629Z,9.80
2022-09-16T05:27:44.606Z,9.10
2022-09-16T05:28:39.599Z,9.70
2022-09-16T05:29:34.623Z,9.30
2022-09-16T05:30:29.631Z,9.60
2022-09-16T05:31:24.697Z,10.50
2022-09-16T05:32:20.228Z,10.90
2022-09-16T05:33:15.619Z,9.40
2022-09-16T05:34:11.022Z,9.00
2022-09-16T05:35:06.403Z,9.30
2022-09-16T05:36:01.790Z,9.00
2022-09-16T05:36:57.413Z,9.30
2022-09-16T05:37:52.669Z,8.90
2022-09-16T05:39:11.118Z,9.20
2022-09-16T05:39:44.646Z,9.70
2022-09-16T05:40:43.131Z,9.00
2022-09-16T05:41:38.647Z,7.90
2022-09-16T05:42:33.959Z,8.80
2022-09-16T05:43:29.395Z,9.40
2022-09-16T05:44:24.915Z,9.50
2022-09-16T05:45:24.877Z,9.10
2022-09-16T05:46:16.778Z,9.50
2022-09-16T05:47:11.284Z,9.70
2022-09-16T05:48:06.713Z,8.90
2022-09-16T05:49:02.132Z,10.10
2022-09-16T05:49:58.713Z,9.80
2022-09-16T05:50:54.161Z,9.80
2022-09-16T05:51:49.745Z,9.00
2022-09-16T05:52:45.123Z,10.10
2022-09-16T05:53:40.602Z,11.10
2022-09-16T05:54:36.093Z,9.10
2022-09-16T05:55:31.118Z,9.90
2022-09-16T05:56:26.211Z,9.90
2022-09-16T05:57:21.294Z,9.70
2022-09-16T05:58:16.330Z,10.00
2022-09-16T05:59:11.422Z,10.10
2022-09-16T06:00:06.495Z,9.60
2022-09-16T06:01:01.509Z,10.70
2022-09-16T06:01:56.633Z,9.40
2022-09-16T06:02:51.699Z,8.40
2022-09-16T06:03:46.866Z,8.70
2022-09-16T06:04:41.940Z,8.60
2022-09-16T06:05:36.967Z,9.00
2022-09-16T06:06:31.994Z,8.40
2022-09-16T06:07:27.067Z,8.40
2022-09-16T06:08:22.127Z,8.30
2022-09-16T06:09:17.867Z,8.70
2022-09-16T06:10:13.194Z,9.00
2022-09-16T06:11:08.622Z,8.80
2022-09-16T06:12:04.094Z,7.90
2022-09-16T06:13:03.153Z,8.80
2022-09-16T06:13:58.652Z,8.60
2022-09-16T06:14:53.866Z,7.80
2022-09-16T06:15:49.362Z,8.30
2022-09-16T06:16:44.785Z,8.10
2022-09-16T06:17:40.334Z,8.40
2022-09-16T06:18:35.684Z,8.10
2022-09-16T06:19:31.123Z,8.60
2022-09-16T06:20:26.603Z,9.40
2022-09-16T06:21:22.048Z,9.30
2022-09-16T06:22:17.481Z,10.00
2022-09-16T06:23:12.924Z,9.90
2022-09-16T06:24:08.393Z,9.60
2022-09-16T06:25:03.841Z,9.60
2022-09-16T06:25:59.298Z,9.10
2022-09-16T06:26:54.301Z,9.40
2022-09-16T06:27:49.327Z,9.60
2022-09-16T06:28:44.420Z,8.70
2022-09-16T06:29:39.478Z,9.60
2022-09-16T06:30:34.583Z,8.50
2022-09-16T06:31:29.620Z,8.20
2022-09-16T06:32:24.635Z,9.10
2022-09-16T06:33:19.708Z,8.50
2022-09-16T06:34:14.741Z,8.30
2022-09-16T06:35:09.787Z,8.90
2022-09-16T06:36:06.746Z,8.50
2022-09-16T06:37:01.768Z,8.60
2022-09-16T06:37:56.822Z,8.30
2022-09-16T06:38:51.917Z,8.40
2022-09-16T06:39:47.671Z,8.50
2022-09-16T06:40:43.238Z,8.80
2022-09-16T06:41:38.589Z,8.30
2022-09-16T06:42:34.014Z,7.70
2022-09-16T06:43:29.530Z,8.20
2022-09-16T06:44:24.973Z,8.20
2022-09-16T06:45:20.439Z,7.80
2022-09-16T06:46:15.926Z,7.60
2022-09-16T06:47:11.487Z,7.50
2022-09-16T06:48:06.875Z,7.60
2022-09-16T06:49:05.672Z,7.10
2022-09-16T06:49:57.723Z,7.60
2022-09-16T06:50:53.153Z,7.00
2022-09-16T06:51:48.615Z,7.00
2022-09-16T06:52:43.635Z,7.10
2022-09-16T06:53:38.703Z,6.60
2022-09-16T06:54:33.812Z,6.70
2022-09-16T06:55:28.821Z,6.90
2022-09-16T06:56:23.859Z,7.00
2022-09-16T06:57:18.881Z,7.20
2022-09-16T06:58:13.937Z,7.00
2022-09-16T06:59:11.283Z,8.00
2022-09-16T07:00:06.338Z,7.40
2022-09-16T07:01:01.432Z,7.00
2022-09-16T07:01:56.484Z,8.60
2022-09-16T07:02:51.479Z,8.00
2022-09-16T07:03:46.585Z,7.70
2022-09-16T07:04:41.738Z,7.20
2022-09-16T07:05:36.798Z,7.50
2022-09-16T07:07:04.912Z,7.20
2022-09-16T07:07:29.218Z,7.20
2022-09-16T07:08:23.759Z,7.30
2022-09-16T07:09:19.315Z,6.40
2022-09-16T07:10:14.728Z,6.90
2022-09-16T07:11:10.497Z,7.50
2022-09-16T07:12:06.878Z,7.60
2022-09-16T07:13:02.293Z,7.10
2022-09-16T07:13:57.702Z,7.00
2022-09-16T07:14:53.101Z,6.90
2022-09-16T07:16:11.887Z,7.70
2022-09-16T07:16:45.253Z,7.40
2022-09-16T07:17:39.415Z,7.20
2022-09-16T07:18:34.850Z,7.60
2022-09-16T07:19:30.305Z,7.40
2022-09-16T07:20:25.771Z,7.90
2022-09-16T07:21:21.354Z,7.90
2022-09-16T07:22:16.663Z,8.50
2022-09-16T07:23:12.155Z,7.80
2022-09-16T07:24:07.865Z,7.40
2022-09-16T07:25:02.860Z,7.70
2022-09-16T07:25:57.918Z,7.90
2022-09-16T07:26:52.963Z,7.60
2022-09-16T07:27:47.971Z,8.70
2022-09-16T07:28:42.983Z,8.90
2022-09-16T07:29:38.036Z,8.50
2022-09-16T07:30:33.119Z,8.70
2022-09-16T07:31:28.211Z,8.60
2022-09-16T07:32:23.254Z,9.30
2022-09-16T07:33:18.280Z,7.80
2022-09-16T07:34:13.322Z,7.60
2022-09-16T07:35:08.348Z,9.10
2022-09-16T07:36:03.365Z,7.70
2022-09-16T07:36:58.479Z,7.60
2022-09-16T07:37:56.181Z,8.60
2022-09-16T07:38:51.745Z,8.20
2022-09-16T07:39:47.082Z,7.90
2022-09-16T07:40:42.524Z,8.30
2022-09-16T07:41:37.976Z,8.20
2022-09-16T07:42:33.445Z,7.70
2022-09-16T07:43:29.005Z,8.50
2022-09-16T07:44:24.448Z,9.20
2022-09-16T07:45:19.919Z,8.70
2022-09-16T07:46:15.488Z,8.20
2022-09-16T07:47:10.904Z,8.30
2022-09-16T07:48:06.327Z,8.90
2022-09-16T07:49:01.793Z,8.70
2022-09-16T07:49:57.219Z,9.10
2022-09-16T07:50:52.633Z,8.70
2022-09-16T07:51:48.103Z,9.10
2022-09-16T07:53:39.197Z,8.40
2022-09-16T07:54:34.658Z,9.30
2022-09-16T07:55:30.094Z,8.80
2022-09-16T07:56:25.719Z,9.00
2022-09-16T07:57:21.040Z,8.10
2022-09-16T07:58:16.462Z,9.30
2022-09-16T07:59:14.363Z,8.80
2022-09-16T08:00:09.746Z,8.10
2022-09-16T08:01:05.192Z,8.50
2022-09-16T08:01:59.855Z,8.40
2022-09-16T08:02:55.278Z,8.60
2022-09-16T08:03:50.749Z,8.30
2022-09-16T08:04:45.807Z,8.30
2022-09-16T08:05:40.829Z,7.80
2022-09-16T08:06:35.879Z,8.10
2022-09-16T08:07:30.995Z,8.00
2022-09-16T08:08:26.046Z,8.60
2022-09-16T08:09:37.859Z,8.60
2022-09-16T08:10:17.095Z,8.70
2022-09-16T08:11:11.168Z,8.50
2022-09-16T08:12:06.175Z,9.00
2022-09-16T08:13:01.285Z,7.90
2022-09-16T08:13:58.635Z,7.60
2022-09-16T08:14:54.134Z,7.80
2022-09-16T08:15:49.440Z,7.60
2022-09-16T08:16:44.911Z,8.10
2022-09-16T08:17:40.302Z,7.40
2022-09-16T08:18:35.673Z,7.80
2022-09-16T08:19:31.095Z,8.40
2022-09-16T08:20:26.460Z,8.50
2022-09-16T08:21:22.045Z,9.20
2022-09-16T08:22:17.296Z,8.40
2022-09-16T08:23:12.687Z,9.10
2022-09-16T08:24:08.093Z,9.00
2022-09-16T08:25:03.514Z,9.10
2022-09-16T08:25:58.905Z,8.80
2022-09-16T08:26:54.340Z,8.80
2022-09-16T08:27:52.810Z,8.50
2022-09-16T08:29:04.914Z,8.10
2022-09-16T08:29:40.653Z,7.80
2022-09-16T08:30:34.678Z,8.00
2022-09-16T08:31:29.918Z,7.80
2022-09-16T08:32:24.991Z,7.80
2022-09-16T08:33:19.984Z,7.90
2022-09-16T08:34:15.069Z,7.40
2022-09-16T08:35:10.029Z,6.90
2022-09-16T08:36:05.057Z,6.80
2022-09-16T08:37:00.267Z,7.30
2022-09-16T08:37:55.300Z,7.20
2022-09-16T08:38:50.334Z,7.00
2022-09-16T08:39:45.413Z,7.50
2022-09-16T08:40:40.471Z,7.00
2022-09-16T08:41:35.531Z,7.90
2022-09-16T08:42:30.642Z,7.20
2022-09-16T08:43:25.717Z,7.00
2022-09-16T08:44:20.800Z,7.20
2022-09-16T08:45:15.849Z,7.10
2022-09-16T08:46:10.978Z,7.30
2022-09-16T08:47:07.029Z,7.00
2022-09-16T08:48:02.486Z,6.20
2022-09-16T08:48:58.096Z,6.20
2022-09-16T08:49:53.598Z,5.90
2022-09-16T08:50:49.056Z,5.90
2022-09-16T08:51:44.634Z,5.50
2022-09-16T08:52:40.124Z,5.40
2022-09-16T08:53:35.497Z,5.90
2022-09-16T08:54:31.030Z,5.70
2022-09-16T08:55:26.441Z,5.20
2022-09-16T08:56:21.904Z,6.00
2022-09-16T08:57:17.331Z,5.40
2022-09-16T08:58:13.152Z,5.30
2022-09-16T08:59:09.129Z,4.90
2022-09-16T09:00:07.550Z,5.70
2022-09-16T09:01:02.901Z,4.80
2022-09-16T09:01:58.531Z,4.50
2022-09-16T09:02:53.685Z,4.70
2022-09-16T09:03:49.261Z,4.20
2022-09-16T09:04:44.627Z,4.90
2022-09-16T09:05:40.063Z,4.80
2022-09-16T09:06:35.428Z,4.60
2022-09-16T09:07:30.839Z,4.60
2022-09-16T09:08:26.298Z,4.40
2022-09-16T09:09:21.759Z,5.30
2022-09-16T09:10:17.326Z,5.00
2022-09-16T09:11:12.759Z,3.90
2022-09-16T09:12:09.347Z,4.10
2022-09-16T09:13:03.747Z,4.40
2022-09-16T09:13:59.000Z,4.40
2022-09-16T09:14:54.405Z,4.40
2022-09-16T09:15:49.863Z,4.00
2022-09-16T09:16:45.385Z,4.30
2022-09-16T09:17:47.964Z,4.10
2022-09-16T09:18:37.442Z,3.90
2022-09-16T09:19:31.874Z,3.60
2022-09-16T09:20:27.255Z,4.00
2022-09-16T09:21:23.812Z,3.10
2022-09-16T09:22:21.742Z,2.90
2022-09-16T09:23:17.192Z,3.20
2022-09-16T09:24:12.661Z,3.00
2022-09-16T09:25:08.091Z,2.70
2022-09-16T09:26:03.580Z,2.70
2022-09-16T09:26:58.991Z,2.70
2022-09-16T09:27:54.479Z,2.90
2022-09-16T09:28:49.899Z,2.60
2022-09-16T09:29:45.519Z,5.00
2022-09-16T09:30:40.953Z,3.80
2022-09-16T09:31:36.039Z,3.20
2022-09-16T09:32:46.015Z,3.60
2022-09-16T09:33:45.575Z,3.70
2022-09-16T09:34:22.238Z,3.10
2022-09-16T09:35:16.244Z,2.90
2022-09-16T09:36:11.329Z,2.90
2022-09-16T09:37:06.292Z,2.80
2022-09-16T09:38:01.308Z,3.00
2022-09-16T09:38:56.335Z,2.40
2022-09-16T09:39:51.518Z,2.40
2022-09-16T09:40:46.926Z,2.00
2022-09-16T09:41:42.417Z,2.30
2022-09-16T09:42:37.449Z,2.10
2022-09-16T09:43:32.511Z,2.30
2022-09-16T09:44:27.731Z,2.50
2022-09-16T09:45:24.191Z,2.60
2022-09-16T09:46:19.279Z,2.10
2022-09-16T09:47:14.300Z,2.60
2022-09-16T09:48:09.361Z,2.70
2022-09-16T09:49:04.386Z,2.70
2022-09-16T09:49:59.422Z,2.40
2022-09-16T09:50:54.457Z,3.00
2022-09-16T09:51:49.631Z,2.80
2022-09-16T09:52:44.672Z,3.60
2022-09-16T09:53:39.693Z,2.60
2022-09-16T09:54:34.760Z,2.50
2022-09-16T09:55:29.803Z,2.90
2022-09-16T09:56:24.970Z,2.30
2022-09-16T09:57:20.097Z,2.50
2022-09-16T09:58:15.149Z,2.50
2022-09-16T09:59:10.153Z,3.00
2022-09-16T10:00:05.190Z,2.40
2022-09-16T10:01:00.414Z,1.80
2022-09-16T10:01:55.722Z,2.00
2022-09-16T10:02:51.179Z,2.20
2022-09-16T10:03:49.180Z,1.90
2022-09-16T10:04:44.507Z,1.90
2022-09-16T10:05:39.936Z,1.70
2022-09-16T10:06:35.711Z,2.10
2022-09-16T10:07:30.887Z,2.20
2022-09-16T10:08:25.926Z,2.30
2022-09-16T10:09:20.981Z,2.00
2022-09-16T10:10:16.021Z,1.90
2022-09-16T10:11:11.195Z,2.30
2022-09-16T10:12:06.095Z,2.20
2022-09-16T10:13:01.156Z,1.90
2022-09-16T10:13:56.288Z,2.30
2022-09-16T10:14:51.744Z,1.80
2022-09-16T10:15:48.297Z,1.90
2022-09-16T10:16:41.975Z,2.40
2022-09-16T10:17:37.034Z,2.30
2022-09-16T10:18:32.186Z,1.70
2022-09-16T10:19:27.246Z,2.20
2022-09-16T10:20:22.449Z,1.80
2022-09-16T10:21:17.551Z,2.30
2022-09-16T10:22:12.844Z,2.40
2022-09-16T10:23:08.284Z,3.00
2022-09-16T10:24:03.908Z,2.10
2022-09-16T10:24:59.320Z,2.60
2022-09-16T10:25:54.777Z,1.80
2022-09-16T10:26:50.399Z,2.40
2022-09-16T10:27:45.846Z,2.00
2022-09-16T10:28:41.288Z,2.10
2022-09-16T10:29:36.751Z,1.90
2022-09-16T10:30:32.206Z,2.20
2022-09-16T10:31:30.519Z,2.40
2022-09-16T10:32:24.117Z,2.10
2022-09-16T10:33:18.588Z,2.40
2022-09-16T10:34:14.065Z,2.20
2022-09-16T10:35:09.487Z,2.40
2022-09-16T10:36:04.977Z,2.40
2022-09-16T10:37:00.456Z,2.90
2022-09-16T10:37:59.705Z,2.40
2022-09-16T10:38:55.213Z,2.90
2022-09-16T10:39:50.583Z,1.90
2022-09-16T10:40:46.184Z,2.20
2022-09-16T10:41:41.783Z,2.00
2022-09-16T10:42:37.065Z,1.90
2022-09-16T10:43:32.572Z,2.20
2022-09-16T10:44:28.055Z,2.20
2022-09-16T10:45:23.517Z,2.40
2022-09-16T10:46:19.223Z,1.80
2022-09-16T10:47:14.713Z,1.90
2022-09-16T10:48:10.191Z,2.00
2022-09-16T10:49:05.695Z,2.00
2022-09-16T10:50:01.174Z,1.90
2022-09-16T10:50:56.787Z,3.00
2022-09-16T10:51:51.902Z,2.40
2022-09-16T10:52:47.001Z,2.30
2022-09-16T10:53:44.424Z,2.60
2022-09-16T10:54:37.194Z,2.50
2022-09-16T10:55:32.421Z,2.40
2022-09-16T10:56:27.602Z,2.30
2022-09-16T10:57:22.673Z,2.30
2022-09-16T10:58:17.722Z,2.00
2022-09-16T10:59:12.751Z,1.70
2022-09-16T11:00:07.806Z,2.10
2022-09-16T11:01:03.738Z,2.40
2022-09-16T11:01:59.243Z,2.20
2022-09-16T11:02:54.586Z,2.40
2022-09-16T11:03:50.065Z,2.40
2022-09-16T11:04:45.487Z,2.30
2022-09-16T11:05:40.946Z,2.80
2022-09-16T11:06:36.540Z,2.10
2022-09-16T11:07:31.995Z,2.30
2022-09-16T11:08:27.484Z,2.50
2022-09-16T11:09:23.131Z,2.80
2022-09-16T11:10:18.646Z,2.80
2022-09-16T11:11:14.131Z,2.70
2022-09-16T11:12:11.093Z,2.70
2022-09-16T11:13:05.305Z,2.30
2022-09-16T11:14:00.802Z,2.20
2022-09-16T11:14:55.914Z,2.40
2022-09-16T11:15:51.015Z,2.60
2022-09-16T11:16:46.100Z,2.80
2022-09-16T11:17:41.231Z,2.70
2022-09-16T11:18:36.327Z,2.80
2022-09-16T11:19:31.401Z,2.80
2022-09-16T11:20:26.415Z,2.80
2022-09-16T11:21:21.448Z,2.90
2022-09-16T11:22:16.503Z,3.00
2022-09-16T11:23:11.609Z,2.80
2022-09-16T11:24:06.639Z,2.90
2022-09-16T11:25:01.688Z,3.10
2022-09-16T11:25:56.784Z,2.60
2022-09-16T11:26:51.909Z,2.70
2022-09-16T11:27:46.968Z,2.80
2022-09-16T11:28:42.167Z,2.80
2022-09-16T11:29:37.714Z,2.60
2022-09-16T11:30:33.198Z,3.20
2022-09-16T11:31:28.715Z,3.20
2022-09-16T11:32:24.237Z,2.70
2022-09-16T11:33:19.290Z,2.80
2022-09-16T11:34:14.381Z,3.20
2022-09-16T11:35:09.476Z,2.90
2022-09-16T11:36:04.574Z,2.90
2022-09-16T11:36:59.777Z,2.50
2022-09-16T11:37:54.874Z,2.90
2022-09-16T11:38:49.965Z,2.80
2022-09-16T11:39:46.816Z,2.60
2022-09-16T11:40:41.914Z,2.10
2022-09-16T11:41:36.974Z,2.40
2022-09-16T11:42:32.101Z,2.50
2022-09-16T11:43:27.165Z,2.70
2022-09-16T11:44:22.212Z,2.80
2022-09-16T11:45:17.392Z,2.90
2022-09-16T11:46:12.519Z,2.70
2022-09-16T11:47:07.823Z,2.20
2022-09-16T11:48:03.273Z,2.70
2022-09-16T11:48:58.703Z,3.20
2022-09-16T11:49:54.153Z,3.30
2022-09-16T11:50:49.580Z,3.00
2022-09-16T11:51:45.041Z,3.20
2022-09-16T11:52:40.654Z,2.70
2022-09-16T11:53:39.793Z,3.10
2022-09-16T11:54:32.514Z,2.80
2022-09-16T11:55:26.938Z,2.70
2022-09-16T11:56:22.414Z,3.00
2022-09-16T11:57:17.938Z,2.70
2022-09-16T11:58:13.338Z,2.80
2022-09-16T11:59:08.731Z,2.50
2022-09-16T12:00:04.240Z,2.50
2022-09-16T12:00:59.748Z,2.70
2022-09-16T12:01:55.310Z,2.80
2022-09-16T12:02:51.252Z,2.70
2022-09-16T12:03:46.787Z,3.10
2022-09-16T12:04:42.246Z,3.20
2022-09-16T12:05:37.665Z,3.10
2022-09-16T12:06:33.175Z,2.80
2022-09-16T12:07:28.556Z,2.80
2022-09-16T12:08:24.760Z,2.70
2022-09-16T12:09:20.218Z,2.60
2022-09-16T12:10:15.752Z,3.00
2022-09-16T12:11:11.354Z,2.40
2022-09-16T12:12:06.694Z,2.30
2022-09-16T12:13:01.752Z,2.70
2022-09-16T12:14:05.736Z,2.80
2022-09-16T12:14:52.910Z,2.60
2022-09-16T12:15:48.043Z,2.70
2022-09-16T12:16:43.512Z,2.20